Time;durP1;ratioP1;P1;durP2;ratioP2;P2;SDS_P1;SDS_P2;PMS_P1;PMS_P2;Temp;Humidity;BMP_temperature;BMP_pressure;BME280_temperature;BME280_humidity;BME280_pressure;Samples;Min_cycle;Max_cycle;Signal;HPM_P1;HPM_P2
2022/01/04 00:01:58;;;;;;;0.57;0.57;;;10.20;99.90;;;10.58;100.00;99495.72;4981825;28;20747;-64
2022/01/04 00:04:25;;;;;;;0.70;0.70;;;10.20;99.90;;;10.68;100.00;99491.31;4980298;28;20671;-63
2022/01/04 00:06:53;;;;;;;1.10;1.00;;;10.30;99.90;;;10.73;100.00;99491.72;4974686;28;20639;-64
2022/01/04 00:09:21;;;;;;;5.33;1.30;;;10.30;99.90;;;10.79;100.00;99488.56;4979151;28;20737;-62
2022/01/04 00:14:18;;;;;;;1.10;1.10;;;10.40;99.90;;;10.87;100.00;99478.25;4974833;28;20607;-64
2022/01/04 00:16:45;;;;;;;0.60;0.60;;;10.50;99.90;;;10.90;100.00;99472.75;4967778;28;20649;-64
2022/01/04 00:19:13;;;;;;;0.80;0.80;;;10.50;99.90;;;10.97;100.00;99467.78;4957088;28;20647;-64
2022/01/04 00:21:40;;;;;;;3.17;1.17;;;10.60;99.90;;;11.05;100.00;99454.88;4974139;28;20618;-64
2022/01/04 00:24:07;;;;;;;0.80;0.80;;;10.70;99.90;;;11.10;100.00;99460.47;4978861;28;21241;-64
2022/01/04 00:26:34;;;;;;;1.33;1.00;;;10.80;99.90;;;11.16;100.00;99454.69;4947611;28;20670;-63
2022/01/04 00:29:02;;;;;;;1.37;1.23;;;10.80;99.90;;;11.17;100.00;99451.13;4987366;28;20638;-64
2022/01/04 00:31:28;;;;;;;1.10;1.10;;;10.80;99.90;;;11.19;100.00;99448.38;4987020;28;20618;-63
2022/01/04 00:33:55;;;;;;;1.83;1.30;;;10.80;99.90;;;11.26;100.00;99450.28;4981854;28;20737;-64
2022/01/04 00:36:22;;;;;;;1.03;1.03;;;10.90;99.90;;;11.27;100.00;99440.63;4992753;28;20644;-64
2022/01/04 00:38:49;;;;;;;1.30;1.30;;;10.90;99.90;;;11.27;100.00;99441.47;4984215;28;21206;-64
2022/01/04 00:41:16;;;;;;;0.90;0.90;;;10.90;99.90;;;11.28;100.00;99450.13;4975906;28;20720;-64
2022/01/04 00:43:45;;;;;;;1.07;1.03;;;10.90;99.90;;;11.29;100.00;99428.25;4983050;28;20713;-64
2022/01/04 00:46:16;;;;;;;1.03;1.03;;;10.90;99.90;;;11.33;100.00;99425.22;4958575;28;21174;-64
2022/01/04 00:51:32;;;;;;;0.93;0.90;;;11.00;99.90;;;11.41;100.00;99411.47;4973797;28;21270;-65
2022/01/04 00:53:59;;;;;;;0.70;0.70;;;11.10;99.90;;;11.44;100.00;99411.97;4987003;28;20742;-65
2022/01/04 00:56:26;;;;;;;1.17;1.17;;;11.10;99.90;;;11.46;100.00;99393.53;4964913;28;20639;-65
2022/01/04 00:58:53;;;;;;;1.10;1.10;;;11.10;99.90;;;11.50;100.00;99400.13;4973638;28;20734;-64
2022/01/04 01:01:21;;;;;;;1.20;1.10;;;11.10;99.90;;;11.52;100.00;99383.34;4975199;28;21241;-65
2022/01/04 01:03:49;;;;;;;1.33;1.20;;;11.20;99.90;;;11.54;100.00;99380.59;4973334;28;20670;-64
2022/01/04 01:06:17;;;;;;;1.20;1.10;;;11.20;99.90;;;11.56;100.00;99371.63;4973833;28;20678;-64
2022/01/04 01:08:44;;;;;;;1.33;1.00;;;11.20;99.90;;;11.58;100.00;99356.63;4973452;28;20715;-64
2022/01/04 01:11:11;;;;;;;1.57;1.47;;;11.30;99.90;;;11.58;100.00;99346.16;4972405;28;20631;-64
2022/01/04 01:13:39;;;;;;;1.33;0.90;;;11.30;99.90;;;11.62;100.00;99342.31;4956349;28;20630;-64
2022/01/04 01:16:09;;;;;;;1.30;1.20;;;11.30;99.90;;;11.64;100.00;99350.00;4972428;28;20641;-64
2022/01/04 01:18:37;;;;;;;1.53;1.43;;;11.30;99.90;;;11.62;100.00;99344.09;4973936;28;20623;-64
2022/01/04 01:21:06;;;;;;;4.00;1.20;;;11.30;99.90;;;11.65;100.00;99344.63;4973175;28;20657;-64
2022/01/04 01:23:35;;;;;;;1.63;1.37;;;11.30;99.90;;;11.66;100.00;99342.84;4990893;28;20773;-64
2022/01/04 01:26:05;;;;;;;1.57;1.37;;;11.30;99.90;;;11.71;100.00;99321.53;4977659;28;20627;-64
2022/01/04 01:28:33;;;;;;;1.50;1.40;;;11.30;99.90;;;11.72;100.00;99315.31;4972663;28;21228;-65
2022/01/04 01:31:06;;;;;;;2.40;1.20;;;11.40;99.90;;;11.68;100.00;99313.03;4955288;29;20671;-64
2022/01/04 01:33:33;;;;;;;1.30;1.30;;;11.30;99.90;;;11.65;100.00;99309.84;4954856;29;20644;-65
2022/01/04 01:36:00;;;;;;;1.17;1.17;;;11.30;99.90;;;11.63;100.00;99304.75;4986019;28;20719;-64
2022/01/04 01:38:27;;;;;;;1.70;1.60;;;11.30;99.90;;;11.63;100.00;99296.09;4973838;28;20622;-64
2022/01/04 01:40:54;;;;;;;1.20;1.20;;;11.30;99.90;;;11.68;100.00;99306.97;4977032;28;21310;-64
2022/01/04 01:43:24;;;;;;;2.40;1.10;;;11.30;99.90;;;11.71;100.00;99301.44;4973854;28;20668;-64
2022/01/04 01:45:53;;;;;;;1.20;1.20;;;11.30;99.90;;;11.67;100.00;99298.28;4955394;28;20694;-64
2022/01/04 01:48:20;;;;;;;1.10;1.10;;;11.30;99.90;;;11.65;100.00;99304.59;4972668;28;20718;-64
2022/01/04 01:50:48;;;;;;;1.30;1.20;;;11.30;99.90;;;11.60;100.00;99285.97;4974303;28;20698;-64
2022/01/04 01:53:16;;;;;;;1.13;1.13;;;11.20;99.90;;;11.61;100.00;99287.59;4939434;28;21261;-63
2022/01/04 01:55:43;;;;;;;1.33;1.23;;;11.30;99.90;;;11.64;100.00;99282.06;4956192;28;21041;-63
2022/01/04 01:58:10;;;;;;;1.30;1.10;;;11.30;99.90;;;11.67;100.00;99289.63;4958431;28;21386;-64
2022/01/04 02:00:38;;;;;;;1.23;1.10;;;11.30;99.90;;;11.69;100.00;99274.66;4958020;28;20653;-63
2022/01/04 02:03:05;;;;;;;1.37;1.27;;;11.40;99.90;;;11.64;100.00;99258.56;4959693;28;20663;-64
2022/01/04 02:05:33;;;;;;;1.40;1.30;;;11.30;99.90;;;11.65;100.00;99249.75;4972890;28;20689;-63
2022/01/04 02:08:03;;;;;;;1.23;1.10;;;11.30;99.90;;;11.70;100.00;99244.94;4940109;28;20631;-64
2022/01/04 02:10:30;;;;;;;1.40;1.30;;;11.30;99.90;;;11.76;99.37;99238.28;4978060;28;20657;-63
2022/01/04 02:12:57;;;;;;;1.20;1.20;;;11.40;99.90;;;11.86;99.07;99241.63;4963521;28;20643;-64
2022/01/04 02:15:26;;;;;;;0.87;0.87;;;11.50;99.90;;;11.85;98.33;99237.38;4975242;28;20738;-63
2022/01/04 02:17:53;;;;;;;1.17;1.17;;;11.50;99.90;;;11.83;99.16;99228.88;4972521;28;20619;-63
2022/01/04 02:20:20;;;;;;;0.90;0.90;;;11.40;99.90;;;11.80;99.74;99227.38;4972185;28;20627;-64
2022/01/04 02:22:48;;;;;;;1.13;1.03;;;11.50;99.90;;;11.73;99.80;99234.19;4971667;28;20980;-64
2022/01/04 02:25:17;;;;;;;1.10;1.07;;;11.40;99.90;;;11.80;99.84;99223.97;4977802;28;21272;-64
2022/01/04 02:27:44;;;;;;;0.90;0.80;;;11.40;99.90;;;11.68;100.00;99220.75;4959784;28;21281;-63
2022/01/04 02:30:15;;;;;;;2.00;1.00;;;11.40;99.90;;;11.66;100.00;99205.22;4972916;28;20707;-63
2022/01/04 02:32:46;;;;;;;0.83;0.83;;;11.30;99.90;;;11.58;100.00;99207.72;4972122;28;20658;-63
2022/01/04 02:35:16;;;;;;;0.47;0.47;;;11.20;99.90;;;11.49;100.00;99211.25;4939696;28;21225;-64
2022/01/04 02:37:43;;;;;;;0.80;0.80;;;11.10;99.90;;;11.38;100.00;99189.75;4954691;28;20618;-63
2022/01/04 02:40:11;;;;;;;1.20;1.10;;;11.10;99.90;;;11.38;100.00;99187.16;4981355;28;20649;-63
2022/01/04 02:42:38;;;;;;;0.87;0.87;;;11.00;99.90;;;11.30;100.00;99189.69;4954705;28;20655;-64
2022/01/04 02:45:08;;;;;;;0.80;0.80;;;10.90;99.90;;;11.30;100.00;99184.47;4972150;28;20659;-63
2022/01/04 02:47:35;;;;;;;0.70;0.70;;;10.90;99.90;;;11.19;100.00;99179.47;4970747;28;20635;-63
2022/01/04 02:50:05;;;;;;;1.10;1.00;;;10.90;99.90;;;11.14;100.00;99174.69;4971632;28;20645;-64
2022/01/04 02:52:33;;;;;;;1.70;0.60;;;10.80;99.90;;;11.20;100.00;99157.63;4954362;28;20690;-63
2022/01/04 02:55:10;;;;;;;0.90;0.90;;;10.80;99.90;;;11.11;100.00;99148.91;4971989;28;20710;-63
2022/01/04 02:57:39;;;;;;;1.23;0.87;;;10.80;99.90;;;11.12;100.00;99154.94;4953521;28;20686;-63
2022/01/04 03:00:10;;;;;;;1.73;1.00;;;10.80;99.90;;;11.10;100.00;99149.88;4966414;28;20716;-63
2022/01/04 03:02:38;;;;;;;0.80;0.80;;;10.80;99.90;;;11.10;100.00;99154.25;4972043;28;20670;-64
2022/01/04 03:05:06;;;;;;;1.80;0.93;;;10.80;99.90;;;11.06;100.00;99150.31;4971254;28;21246;-64
2022/01/04 03:07:33;;;;;;;1.37;1.10;;;10.70;99.90;;;11.04;100.00;99144.41;4970902;28;21237;-63
2022/01/04 03:10:00;;;;;;;2.60;0.70;;;10.70;99.90;;;11.04;100.00;99147.03;4975560;28;20649;-63
2022/01/04 03:12:27;;;;;;;1.13;1.13;;;10.70;99.90;;;11.05;100.00;99143.47;4979247;28;20642;-63
2022/01/04 03:14:54;;;;;;;1.57;0.93;;;10.70;99.90;;;11.06;100.00;99140.69;4963686;28;21237;-63
2022/01/04 03:17:21;;;;;;;0.63;0.63;;;10.70;99.90;;;11.06;100.00;99139.88;4973050;28;20611;-63
2022/01/04 03:19:48;;;;;;;0.50;0.50;;;10.70;99.90;;;11.05;100.00;99126.03;4973111;28;20625;-65
2022/01/04 03:22:15;;;;;;;1.53;1.03;;;10.80;99.90;;;11.10;100.00;99121.16;4970269;28;20639;-63
2022/01/04 03:24:42;;;;;;;0.93;0.80;;;10.80;99.90;;;11.08;100.00;99122.25;4968500;28;20667;-62
2022/01/04 03:27:08;;;;;;;0.57;0.57;;;10.80;99.90;;;11.13;100.00;99114.81;4979101;28;20631;-63
2022/01/04 03:29:35;;;;;;;0.60;0.60;;;10.80;99.90;;;11.05;100.00;99112.97;4975084;28;20637;-63
2022/01/04 03:32:03;;;;;;;1.23;0.50;;;10.70;99.90;;;11.06;100.00;99104.16;4987977;28;20653;-64
2022/01/04 03:34:30;;;;;;;0.90;0.90;;;10.70;99.90;;;11.00;100.00;99091.72;4973577;28;21318;-63
2022/01/04 03:36:56;;;;;;;1.20;0.40;;;10.70;99.90;;;11.00;100.00;99090.88;4975955;28;20623;-63
2022/01/04 03:39:23;;;;;;;8.50;0.67;;;10.70;99.90;;;10.98;100.00;99090.22;4975566;28;20643;-64
2022/01/04 03:41:51;;;;;;;0.63;0.50;;;10.70;99.90;;;10.94;100.00;99082.69;4942788;28;21138;-64
2022/01/04 03:44:20;;;;;;;0.30;0.30;;;10.60;99.90;;;10.95;100.00;99075.69;4957709;28;20867;-63
2022/01/04 03:46:49;;;;;;;1.10;1.00;;;10.60;99.90;;;10.96;100.00;99066.88;4941496;28;20630;-64
2022/01/04 03:49:16;;;;;;;1.03;1.03;;;10.60;99.90;;;10.96;100.00;99068.66;4976328;28;21090;-63
2022/01/04 03:51:45;;;;;;;1.00;1.00;;;10.60;99.90;;;10.99;100.00;99063.97;4975990;28;20613;-64
2022/01/04 03:54:12;;;;;;;1.40;1.17;;;10.60;99.90;;;10.98;100.00;99058.91;4977079;28;20643;-64
2022/01/04 03:56:39;;;;;;;0.87;0.87;;;10.70;99.90;;;11.01;100.00;99054.19;4982659;28;20635;-64
2022/01/04 03:59:06;;;;;;;0.80;0.80;;;10.70;99.90;;;11.03;100.00;99051.44;4971207;28;21097;-63
2022/01/04 04:01:33;;;;;;;0.80;0.80;;;10.70;99.90;;;10.98;100.00;99041.47;4975454;28;20626;-64
2022/01/04 04:04:00;;;;;;;0.80;0.80;;;10.70;99.90;;;10.98;100.00;99038.84;4974652;28;20697;-63
2022/01/04 04:06:27;;;;;;;2.30;1.27;;;10.60;99.90;;;10.99;100.00;99035.25;4976218;28;21155;-64
2022/01/04 04:08:56;;;;;;;0.77;0.77;;;10.60;99.90;;;10.96;100.00;99038.19;4974600;28;20629;-63
2022/01/04 04:11:27;;;;;;;1.47;1.13;;;10.60;99.90;;;10.98;100.00;99028.41;4976165;28;20654;-64
2022/01/04 04:13:54;;;;;;;1.43;1.03;;;10.60;99.90;;;10.96;100.00;99032.13;4974656;28;20618;-64
2022/01/04 04:16:21;;;;;;;0.60;0.40;;;10.70;99.90;;;11.04;100.00;99026.97;4974711;28;21206;-63
2022/01/04 04:18:48;;;;;;;0.80;0.80;;;10.70;99.90;;;11.00;100.00;99026.47;4974203;28;21001;-63
2022/01/04 04:21:15;;;;;;;0.50;0.50;;;10.60;99.90;;;10.96;100.00;99024.31;4957001;28;20611;-63
2022/01/04 04:23:42;;;;;;;0.40;0.40;;;10.60;99.90;;;10.95;100.00;99015.66;4975773;28;20943;-63
2022/01/04 04:26:08;;;;;;;0.80;0.80;;;10.60;99.90;;;11.02;100.00;99008.03;4989400;28;20624;-63
2022/01/04 04:28:35;;;;;;;0.93;0.93;;;10.60;99.90;;;11.02;100.00;98997.59;4973965;28;20654;-64
2022/01/04 04:31:03;;;;;;;0.70;0.70;;;10.60;99.90;;;10.98;100.00;98988.44;4974423;28;20732;-64
2022/01/04 04:33:30;;;;;;;0.50;0.50;;;10.60;99.90;;;10.96;100.00;98988.59;4972377;28;20721;-64
2022/01/04 04:35:57;;;;;;;2.20;1.00;;;10.60;99.90;;;10.94;100.00;98980.91;4972405;28;20631;-64
2022/01/04 04:38:24;;;;;;;0.93;0.93;;;10.60;99.90;;;10.93;100.00;98978.47;4974337;28;21185;-64
2022/01/04 04:40:51;;;;;;;1.00;1.00;;;10.60;99.90;;;10.90;100.00;98974.38;4957279;28;20631;-64
2022/01/04 04:43:18;;;;;;;1.10;1.10;;;10.60;99.90;;;10.93;100.00;98973.25;4974831;28;20630;-64
2022/01/04 04:45:45;;;;;;;2.00;0.70;;;10.50;99.90;;;10.94;100.00;98967.88;4974284;28;20663;-63
2022/01/04 04:48:12;;;;;;;1.10;1.10;;;10.60;99.90;;;10.93;100.00;98963.63;4973394;28;20634;-64
2022/01/04 04:50:40;;;;;;;0.47;0.47;;;10.60;99.90;;;10.94;100.00;98954.81;4974284;28;20973;-64
2022/01/04 04:53:07;;;;;;;1.13;1.13;;;10.60;99.90;;;10.91;100.00;98954.31;4973689;28;20708;-65
2022/01/04 04:55:34;;;;;;;0.40;0.40;;;10.50;99.90;;;10.87;100.00;98940.78;4977203;28;20639;-64
2022/01/04 04:58:01;;;;;;;0.60;0.60;;;10.50;99.90;;;10.82;100.00;98936.97;4973661;28;20619;-64
2022/01/04 05:00:28;;;;;;;1.07;1.07;;;10.50;99.90;;;10.80;100.00;98931.91;4972895;28;21175;-64
2022/01/04 05:02:55;;;;;;;0.50;0.50;;;10.50;99.90;;;10.76;100.00;98927.97;4973441;28;20705;-64
2022/01/04 05:05:22;;;;;;;1.10;0.87;;;10.40;99.90;;;10.70;100.00;98920.75;4953909;29;20801;-64
2022/01/04 05:07:49;;;;;;;0.70;0.60;;;10.40;99.90;;;10.73;100.00;98919.63;4937139;29;20616;-64
2022/01/04 05:10:16;;;;;;;1.57;1.00;;;10.40;99.90;;;10.79;100.00;98911.19;4971820;28;20634;-64
2022/01/04 05:12:42;;;;;;;0.80;0.80;;;10.40;99.90;;;10.73;100.00;98901.38;4974522;28;21000;-64
2022/01/04 05:15:10;;;;;;;0.77;0.77;;;10.40;99.90;;;10.65;100.00;98906.50;4980612;28;21029;-64
2022/01/04 05:17:37;;;;;;;1.17;1.13;;;10.40;99.90;;;10.74;100.00;98900.38;4974339;28;21286;-64
2022/01/04 05:20:05;;;;;;;0.37;0.37;;;10.30;99.90;;;10.66;100.00;98892.50;4956059;28;21233;-64
2022/01/04 05:22:32;;;;;;;0.87;0.87;;;10.30;99.90;;;10.59;100.00;98896.69;4973818;28;20670;-64
2022/01/04 05:24:58;;;;;;;0.67;0.67;;;10.30;99.90;;;10.62;100.00;98883.38;4962237;28;20701;-64
2022/01/04 05:27:25;;;;;;;0.67;0.67;;;10.30;99.90;;;10.61;100.00;98881.72;4976800;28;20634;-63
2022/01/04 05:29:52;;;;;;;2.90;1.00;;;10.30;99.90;;;10.62;100.00;98889.41;4974297;28;20623;-64
2022/01/04 05:32:19;;;;;;;0.40;0.40;;;10.30;99.90;;;10.62;100.00;98880.75;4955970;28;20662;-64
2022/01/04 05:34:46;;;;;;;0.67;0.57;;;10.30;99.90;;;10.60;100.00;98870.50;4972505;28;20627;-64
2022/01/04 05:37:13;;;;;;;1.73;0.80;;;10.30;99.90;;;10.56;100.00;98876.94;4964746;28;20733;-64
2022/01/04 05:39:40;;;;;;;1.67;0.70;;;10.20;99.90;;;10.57;100.00;98870.78;4973280;28;20962;-63
2022/01/04 05:42:10;;;;;;;0.50;0.50;;;10.20;99.90;;;10.58;100.00;98874.22;4971546;28;21261;-64
2022/01/04 05:44:38;;;;;;;0.50;0.50;;;10.20;99.90;;;10.55;100.00;98857.06;4956999;28;20671;-63
2022/01/04 05:47:06;;;;;;;7.43;1.13;;;10.20;99.90;;;10.56;100.00;98863.91;4972338;28;20655;-63
2022/01/04 05:49:33;;;;;;;0.70;0.70;;;10.20;99.90;;;10.52;100.00;98862.59;4974139;28;20654;-65
2022/01/04 05:52:04;;;;;;;0.80;0.80;;;10.20;99.90;;;10.54;100.00;98850.22;4974313;28;20655;-63
2022/01/04 05:54:32;;;;;;;1.73;1.13;;;10.30;99.90;;;10.62;100.00;98847.69;4980037;28;20635;-64
2022/01/04 05:56:59;;;;;;;0.90;0.90;;;10.20;99.90;;;10.62;100.00;98836.44;4977706;28;20630;-64
2022/01/04 05:59:26;;;;;;;0.80;0.80;;;10.30;99.90;;;10.64;100.00;98826.66;4976027;28;20650;-64
2022/01/04 06:01:53;;;;;;;1.47;0.90;;;10.30;99.90;;;10.57;100.00;98821.22;4972204;28;20658;-64
2022/01/04 06:04:20;;;;;;;0.37;0.37;;;10.30;99.90;;;10.58;100.00;98815.06;4972761;28;20670;-64
2022/01/04 06:06:47;;;;;;;0.40;0.40;;;10.20;99.90;;;10.59;100.00;98813.25;4972073;28;20639;-63
2022/01/04 06:09:21;;;;;;;0.60;0.60;;;10.30;99.90;;;10.58;100.00;98817.66;4972347;28;20639;-64
2022/01/04 06:17:03;;;;;;;0.30;0.30;;;10.30;99.90;;;10.62;100.00;98805.97;4973995;28;20638;-64
2022/01/04 06:19:30;;;;;;;0.67;0.67;;;10.30;99.90;;;10.65;100.00;98805.63;4940404;28;20654;-64
2022/01/04 06:21:58;;;;;;;2.90;0.80;;;10.30;99.90;;;10.62;100.00;98794.69;4972172;28;20686;-64
2022/01/04 06:24:24;;;;;;;0.70;0.70;;;10.30;99.90;;;10.63;100.00;98798.94;4956293;28;20711;-64
2022/01/04 06:26:52;;;;;;;0.77;0.77;;;10.30;99.90;;;10.64;100.00;98787.53;4979516;28;20653;-64
2022/01/04 06:29:22;;;;;;;0.70;0.70;;;10.30;99.90;;;10.63;100.00;98785.88;4972862;28;20671;-64
2022/01/04 06:31:49;;;;;;;0.60;0.60;;;10.30;99.90;;;10.61;100.00;98780.84;4969991;28;20999;-64
2022/01/04 06:34:16;;;;;;;0.70;0.70;;;10.30;99.90;;;10.65;100.00;98792.59;4971989;28;20643;-65
2022/01/04 06:36:43;;;;;;;0.90;0.90;;;10.30;99.90;;;10.69;100.00;98778.25;4972985;28;21168;-64
2022/01/04 06:39:10;;;;;;;0.60;0.60;;;10.30;99.90;;;10.74;100.00;98783.00;4971213;28;20724;-65
2022/01/04 06:41:37;;;;;;;1.00;1.00;;;10.40;99.90;;;10.75;100.00;98782.84;4972585;28;20615;-64
2022/01/04 06:44:04;;;;;;;0.83;0.80;;;10.40;99.90;;;10.76;100.00;98779.28;4955210;28;20994;-64
2022/01/04 06:46:32;;;;;;;0.90;0.90;;;10.40;99.90;;;10.75;100.00;98775.03;4971792;28;20639;-64
2022/01/04 06:49:00;;;;;;;1.00;0.80;;;10.40;99.90;;;10.77;100.00;98783.53;4954250;28;21277;-64
2022/01/04 06:51:30;;;;;;;6.03;0.90;;;10.40;99.90;;;10.82;100.00;98770.81;4977372;28;20643;-65
2022/01/04 06:53:57;;;;;;;0.90;0.80;;;10.40;99.90;;;10.82;100.00;98770.81;5000273;23;21079;-68
2022/01/04 06:56:24;;;;;;;1.10;1.10;;;10.50;99.90;;;10.80;100.00;98772.78;4934520;29;20632;-67
2022/01/04 06:58:51;;;;;;;1.10;1.00;;;10.40;99.90;;;10.82;100.00;98768.22;4936081;29;20986;-68
2022/01/04 07:01:18;;;;;;;0.70;0.70;;;10.40;99.90;;;10.89;100.00;98765.81;4961597;28;20635;-67
2022/01/04 07:03:45;;;;;;;0.80;0.80;;;10.50;99.90;;;10.86;100.00;98769.53;4955779;28;20663;-67
2022/01/04 07:06:12;;;;;;;0.70;0.70;;;10.50;99.90;;;10.87;100.00;98771.19;4952326;29;20670;-69
2022/01/04 07:08:38;;;;;;;0.60;0.60;;;10.50;99.90;;;10.87;100.00;98758.13;4934154;29;21195;-66
2022/01/04 07:11:05;;;;;;;0.83;0.83;;;10.50;99.90;;;10.86;100.00;98755.69;4948340;28;21009;-65
2022/01/04 07:13:32;;;;;;;0.90;0.83;;;10.50;99.90;;;10.91;100.00;98749.03;4952818;29;21249;-66
2022/01/04 07:15:59;;;;;;;0.93;0.93;;;10.50;99.90;;;10.90;100.00;98747.38;4944829;29;20647;-67
2022/01/04 07:18:26;;;;;;;0.63;0.63;;;10.50;99.90;;;10.91;100.00;98746.41;4934069;29;20620;-66
2022/01/04 07:20:53;;;;;;;0.83;0.80;;;10.50;99.90;;;10.93;100.00;98738.41;4932752;29;21026;-68
2022/01/04 07:23:22;;;;;;;1.20;1.10;;;10.60;99.90;;;10.96;100.00;98742.50;4934445;29;20645;-67
2022/01/04 07:25:49;;;;;;;1.00;1.00;;;10.60;99.90;;;10.97;100.00;98738.94;4932760;28;21042;-67
2022/01/04 07:28:16;;;;;;;1.00;1.00;;;10.60;99.90;;;11.00;100.00;98733.38;4948098;29;21235;-67
2022/01/04 07:30:43;;;;;;;5.93;1.30;;;10.60;99.90;;;10.99;100.00;98726.56;4935654;29;20982;-66
2022/01/04 07:33:11;;;;;;;1.60;1.27;;;10.60;99.90;;;11.00;100.00;98728.16;4932803;29;20641;-69
2022/01/04 07:35:38;;;;;;;0.70;0.70;;;10.60;99.90;;;11.01;100.00;98730.59;4919976;29;20639;-66
2022/01/04 07:38:05;;;;;;;0.63;0.63;;;10.70;99.90;;;11.01;100.00;98722.00;4952168;29;20631;-66
2022/01/04 07:40:32;;;;;;;0.87;0.83;;;10.70;99.90;;;11.06;100.00;98724.91;4951233;29;20608;-69
2022/01/04 07:43:02;;;;;;;1.17;1.10;;;10.70;99.90;;;11.04;100.00;98716.44;4949382;29;20646;-67
2022/01/04 07:45:30;;;;;;;0.40;0.40;;;10.70;99.90;;;11.03;100.00;98722.66;4934820;29;20664;-67
2022/01/04 07:48:00;;;;;;;0.80;0.60;;;10.70;99.90;;;10.98;100.00;98709.25;4940721;29;20641;-67
2022/01/04 07:50:27;;;;;;;0.60;0.60;;;10.60;99.90;;;10.98;100.00;98709.25;4933835;29;20616;-69
2022/01/04 07:52:54;;;;;;;1.37;0.70;;;10.60;99.90;;;11.01;100.00;98703.72;4940562;29;20671;-68
2022/01/04 07:55:21;;;;;;;0.70;0.70;;;10.60;99.90;;;11.04;100.00;98698.16;4952524;29;20983;-66
2022/01/04 07:57:48;;;;;;;0.60;0.60;;;10.70;99.90;;;11.05;100.00;98700.63;4949791;28;20643;-68
2022/01/04 08:00:16;;;;;;;0.37;0.37;;;10.70;99.90;;;11.00;100.00;98678.59;4949055;29;21226;-66
2022/01/04 08:02:44;;;;;;;0.70;0.70;;;10.70;99.90;;;11.04;100.00;98685.13;4951613;29;20699;-67
2022/01/04 08:05:12;;;;;;;0.70;0.70;;;10.70;99.90;;;11.06;100.00;98675.34;4951954;29;20756;-66
2022/01/04 08:07:40;;;;;;;0.90;0.90;;;10.70;99.90;;;11.08;100.00;98676.00;4943804;29;20643;-66
2022/01/04 08:10:07;;;;;;;0.37;0.37;;;10.70;99.90;;;11.08;100.00;98668.97;4952645;29;20635;-67
2022/01/04 08:12:35;;;;;;;0.80;0.80;;;10.70;99.90;;;11.08;100.00;98662.94;4951398;29;20660;-67
2022/01/04 08:15:07;;;;;;;1.33;0.90;;;10.80;99.90;;;11.11;100.00;98667.84;4950688;28;20737;-67
2022/01/04 08:17:36;;;;;;;0.97;0.97;;;10.80;99.90;;;11.09;100.00;98659.38;4970915;28;20730;-68
2022/01/04 08:20:05;;;;;;;0.73;0.73;;;10.80;99.90;;;11.12;100.00;98659.03;4942992;28;20632;-67
2022/01/04 08:22:33;;;;;;;1.00;1.00;;;10.80;99.90;;;11.18;100.00;98648.75;4955069;28;20640;-66
2022/01/04 08:25:06;;;;;;;0.70;0.57;;;10.80;99.90;;;11.19;100.00;98644.38;4955337;29;20666;-66
2022/01/04 08:27:34;;;;;;;0.60;0.60;;;10.80;99.90;;;11.21;100.00;98637.19;4958374;28;20631;-67
2022/01/04 08:30:03;;;;;;;0.83;0.83;;;10.90;99.90;;;11.22;100.00;98634.41;4935769;28;21119;-66
2022/01/04 08:32:30;;;;;;;0.87;0.60;;;10.90;99.90;;;11.27;100.00;98626.09;4969015;28;20650;-70
2022/01/04 08:34:57;;;;;;;1.10;0.70;;;10.90;99.90;;;11.27;100.00;98620.88;4944500;28;20664;-70
2022/01/04 08:37:24;;;;;;;0.97;0.90;;;10.90;99.90;;;11.27;100.00;98613.88;4938840;28;20727;-71
2022/01/04 08:39:51;;;;;;;0.30;0.30;;;10.90;99.90;;;11.28;100.00;98612.09;4960258;28;20640;-70
2022/01/04 08:42:22;;;;;;;0.57;0.57;;;11.00;99.90;;;11.27;100.00;98615.66;4955483;29;20648;-68
2022/01/04 08:44:49;;;;;;;0.57;0.50;;;11.00;99.90;;;11.31;100.00;98607.34;4944932;29;21174;-67
2022/01/04 08:47:17;;;;;;;0.83;0.83;;;11.00;99.90;;;11.36;100.00;98596.41;4941552;29;20843;-69
2022/01/04 08:49:43;;;;;;;0.30;0.30;;;11.00;99.90;;;11.38;100.00;98590.03;4950062;29;21053;-66
2022/01/04 08:52:10;;;;;;;0.53;0.53;;;11.10;99.90;;;11.38;100.00;98586.63;4953816;28;20620;-66
2022/01/04 08:54:38;;;;;;;1.37;0.60;;;11.10;99.90;;;11.42;100.00;98582.69;4959858;28;20631;-66
2022/01/04 08:57:06;;;;;;;1.10;0.57;;;11.10;99.90;;;11.46;100.00;98589.22;4955612;29;20624;-67
2022/01/04 08:59:33;;;;;;;0.37;0.37;;;11.10;99.90;;;11.47;100.00;98583.03;4946861;28;20632;-67
2022/01/04 09:02:00;;;;;;;0.73;0.73;;;11.10;99.90;;;11.51;100.00;98577.31;4957723;28;20747;-66
2022/01/04 09:04:27;;;;;;;1.00;0.73;;;11.20;99.90;;;11.58;100.00;98574.84;4953031;29;20628;-67
2022/01/04 09:06:54;;;;;;;0.83;0.47;;;11.20;99.90;;;11.57;100.00;98562.75;4950253;29;20773;-67
2022/01/04 09:09:21;;;;;;;1.20;1.10;;;11.20;99.90;;;11.62;100.00;98569.13;4954478;28;20636;-65
2022/01/04 09:11:48;;;;;;;0.73;0.73;;;11.30;99.90;;;11.64;100.00;98566.34;4931929;29;21025;-67
2022/01/04 09:14:24;;;;;;;0.60;0.60;;;11.30;99.90;;;11.60;100.00;98557.22;4952405;29;20639;-69
2022/01/04 09:19:39;;;;;;;0.97;0.87;;;11.30;99.90;;;11.59;100.00;98551.16;4936262;29;20644;-67
2022/01/04 09:22:06;;;;;;;0.40;0.40;;;11.20;99.90;;;11.66;100.00;98559.16;4935948;28;21214;-66
2022/01/04 09:24:33;;;;;;;0.50;0.50;;;11.30;99.90;;;11.71;100.00;98564.75;4955348;28;20642;-67
2022/01/04 09:27:05;;;;;;;0.90;0.90;;;11.30;99.90;;;11.71;100.00;98558.69;4956698;28;21171;-66
2022/01/04 09:29:33;;;;;;;0.70;0.70;;;11.40;99.90;;;11.73;100.00;98552.31;4935028;28;20645;-66
2022/01/04 09:32:02;;;;;;;0.90;0.90;;;11.40;99.90;;;11.73;100.00;98554.94;4944726;29;20664;-65
2022/01/04 09:34:29;;;;;;;0.80;0.80;;;11.40;99.90;;;11.76;100.00;98562.41;4950263;29;20620;-66
2022/01/04 09:36:57;;;;;;;0.70;0.70;;;11.40;99.90;;;11.78;100.00;98564.84;4936509;28;20640;-66
2022/01/04 09:39:24;;;;;;;1.30;0.87;;;11.40;99.90;;;11.82;100.00;98563.56;4941603;29;20624;-66
2022/01/04 09:41:55;;;;;;;0.90;0.90;;;11.40;99.90;;;11.84;100.00;98566.81;4955493;28;20636;-66
2022/01/04 09:44:25;;;;;;;0.80;0.80;;;11.50;99.90;;;11.87;100.00;98575.13;4951372;28;20632;-67
2022/01/04 09:46:52;;;;;;;1.53;1.00;;;11.50;99.90;;;11.91;100.00;98575.59;4946981;29;20703;-70
2022/01/04 09:49:20;;;;;;;0.83;0.83;;;11.50;99.90;;;11.91;100.00;98576.41;4932804;29;21179;-67
2022/01/04 09:51:49;;;;;;;0.77;0.77;;;11.60;99.90;;;11.94;100.00;98589.16;4916486;29;20621;-69
2022/01/04 09:54:21;;;;;;;0.73;0.70;;;11.60;99.90;;;11.95;100.00;98580.31;4934956;29;20644;-68
2022/01/04 09:56:49;;;;;;;0.80;0.80;;;11.60;99.90;;;12.00;100.00;98588.47;4916856;29;20735;-66
2022/01/04 09:59:18;;;;;;;0.60;0.60;;;11.70;99.90;;;11.99;100.00;98594.69;4934277;29;20985;-68
2022/01/04 10:01:50;;;;;;;1.30;1.23;;;11.70;99.90;;;11.95;100.00;98601.22;4938134;29;20759;-68
2022/01/04 10:04:23;;;;;;;0.90;0.73;;;11.60;99.90;;;11.93;100.00;98607.59;4938044;29;20644;-68
2022/01/04 10:07:06;;;;;;;2.60;0.80;;;11.60;99.90;;;11.37;100.00;98598.06;4937535;29;20669;-67
2022/01/04 10:09:48;;;;;;;0.40;0.40;;;11.10;99.90;;;11.12;100.00;98601.63;4918170;29;20612;-68
2022/01/04 10:12:18;;;;;;;0.70;0.70;;;10.80;99.90;;;10.86;100.00;98618.22;4950268;29;20764;-67
2022/01/04 10:14:52;;;;;;;2.13;0.80;;;10.50;99.90;;;10.76;100.00;98608.91;4954047;28;20620;-67
2022/01/04 10:17:28;;;;;;;0.60;0.60;;;10.50;99.90;;;10.63;100.00;98617.19;4937637;29;20734;-68
2022/01/04 10:19:59;;;;;;;0.80;0.80;;;10.30;99.90;;;10.50;100.00;98623.88;4931122;29;21222;-67
2022/01/04 10:22:32;;;;;;;0.93;0.93;;;10.20;99.90;;;10.44;100.00;98634.91;4934987;29;20884;-69
2022/01/04 10:25:02;;;;;;;0.70;0.70;;;10.10;99.90;;;10.20;100.00;98634.81;4933763;29;20633;-68
2022/01/04 10:27:42;;;;;;;0.73;0.70;;;9.90;99.90;;;9.82;100.00;98628.22;4943814;28;21542;-69
2022/01/04 10:30:31;;;;;;;0.60;0.60;;;9.60;99.90;;;9.80;100.00;98633.59;4936557;29;21270;-68